sensor_id;sensor_type;location;lat;lon;timestamp;pressure;altitude;pressure_sealevel;temperature;humidity
40073;BME280;25774;52.256;9.356;2023-02-13T00:01:20;102715.09;;;8.10;100.00
40073;BME280;25774;52.256;9.356;2023-02-13T00:03:45;102714.34;;;7.96;100.00
40073;BME280;25774;52.256;9.356;2023-02-13T00:06:10;102724.81;;;8.05;100.00
40073;BME280;25774;52.256;9.356;2023-02-13T00:08:36;102718.81;;;7.83;100.00
40073;BME280;25774;52.256;9.356;2023-02-13T00:11:01;102712.75;;;7.72;100.00
40073;BME280;25774;52.256;9.356;2023-02-13T00:13:26;102718.91;;;7.67;100.00
40073;BME280;25774;52.256;9.356;2023-02-13T00:15:57;102724.06;;;7.89;100.00
40073;BME280;25774;52.256;9.356;2023-02-13T00:18:23;102711.88;;;7.71;100.00
40073;BME280;25774;52.256;9.356;2023-02-13T00:21:05;102717.94;;;7.85;100.00
40073;BME280;25774;52.256;9.356;2023-02-13T00:23:31;102716.19;;;7.81;100.00
40073;BME280;25774;52.256;9.356;2023-02-13T00:25:58;102716.09;;;7.97;100.00
40073;BME280;25774;52.256;9.356;2023-02-13T00:28:24;102704.94;;;7.64;100.00
40073;BME280;25774;52.256;9.356;2023-02-13T00:30:50;102712.75;;;7.73;100.00
40073;BME280;25774;52.256;9.356;2023-02-13T00:33:15;102713.69;;;7.61;100.00
40073;BME280;25774;52.256;9.356;2023-02-13T00:35:41;102728.50;;;7.79;100.00
40073;BME280;25774;52.256;9.356;2023-02-13T00:38:07;102714.59;;;7.60;100.00
40073;BME280;25774;52.256;9.356;2023-02-13T00:40:32;102731.19;;;7.67;100.00
40073;BME280;25774;52.256;9.356;2023-02-13T00:42:58;102732.91;;;7.73;100.00
40073;BME280;25774;52.256;9.356;2023-02-13T00:45:23;102730.13;;;7.94;100.00
40073;BME280;25774;52.256;9.356;2023-02-13T00:47:48;102724.03;;;7.90;100.00
40073;BME280;25774;52.256;9.356;2023-02-13T00:50:14;102717.16;;;7.73;100.00
40073;BME280;25774;52.256;9.356;2023-02-13T00:52:39;102710.94;;;7.83;100.00
40073;BME280;25774;52.256;9.356;2023-02-13T00:55:05;102714.47;;;7.79;100.00
40073;BME280;25774;52.256;9.356;2023-02-13T00:57:30;102712.75;;;7.76;100.00
40073;BME280;25774;52.256;9.356;2023-02-13T00:59:56;102719.78;;;7.73;100.00
40073;BME280;25774;52.256;9.356;2023-02-13T01:02:22;102713.72;;;7.58;100.00
40073;BME280;25774;52.256;9.356;2023-02-13T01:04:47;102721.56;;;7.66;100.00
40073;BME280;25774;52.256;9.356;2023-02-13T01:07:13;102729.38;;;7.77;100.00
40073;BME280;25774;52.256;9.356;2023-02-13T01:09:38;102723.22;;;7.82;100.00
40073;BME280;25774;52.256;9.356;2023-02-13T01:12:03;102724.03;;;7.87;100.00
40073;BME280;25774;52.256;9.356;2023-02-13T01:14:29;102720.53;;;7.87;100.00
40073;BME280;25774;52.256;9.356;2023-02-13T01:16:54;102717.13;;;7.74;100.00
40073;BME280;25774;52.256;9.356;2023-02-13T01:19:20;102717.13;;;7.74;100.00
40073;BME280;25774;52.256;9.356;2023-02-13T01:21:45;102707.53;;;7.70;100.00
40073;BME280;25774;52.256;9.356;2023-02-13T01:24:10;102710.09;;;7.79;100.00
40073;BME280;25774;52.256;9.356;2023-02-13T01:26:36;102703.13;;;7.71;100.00
40073;BME280;25774;52.256;9.356;2023-02-13T01:29:01;102705.84;;;7.57;100.00
40073;BME280;25774;52.256;9.356;2023-02-13T01:31:26;102714.53;;;7.68;100.00
40073;BME280;25774;52.256;9.356;2023-02-13T01:33:56;102717.16;;;7.73;100.00
40073;BME280;25774;52.256;9.356;2023-02-13T01:36:22;102710.97;;;7.75;100.00
40073;BME280;25774;52.256;9.356;2023-02-13T01:38:52;102705.91;;;7.48;100.00
40073;BME280;25774;52.256;9.356;2023-02-13T01:41:17;102707.72;;;7.30;100.00
40073;BME280;25774;52.256;9.356;2023-02-13T01:46:09;102718.25;;;7.32;100.00
40073;BME280;25774;52.256;9.356;2023-02-13T01:48:35;102721.78;;;7.25;100.00
40073;BME280;25774;52.256;9.356;2023-02-13T01:51:05;102733.09;;;7.43;100.00
40073;BME280;25774;52.256;9.356;2023-02-13T01:56:05;102723.44;;;7.47;100.00
40073;BME280;25774;52.256;9.356;2023-02-13T01:58:33;102720.84;;;7.33;100.00
40073;BME280;25774;52.256;9.356;2023-02-13T02:01:01;102728.69;;;7.47;100.00
40073;BME280;25774;52.256;9.356;2023-02-13T02:03:36;102738.16;;;7.71;100.00
40073;BME280;25774;52.256;9.356;2023-02-13T02:06:03;102734.66;;;7.72;100.00
40073;BME280;25774;52.256;9.356;2023-02-13T02:08:32;102732.84;;;7.83;100.00
40073;BME280;25774;52.256;9.356;2023-02-13T02:11:05;102718.03;;;7.65;100.00
40073;BME280;25774;52.256;9.356;2023-02-13T02:13:33;102708.47;;;7.58;100.00
40073;BME280;25774;52.256;9.356;2023-02-13T02:15:59;102706.75;;;7.51;100.00
40073;BME280;25774;52.256;9.356;2023-02-13T02:18:24;102706.66;;;7.69;100.00
40073;BME280;25774;52.256;9.356;2023-02-13T02:29:59;102686.56;;;7.61;100.00
40073;BME280;25774;52.256;9.356;2023-02-13T02:32:58;102682.13;;;7.67;100.00
40073;BME280;25774;52.256;9.356;2023-02-13T02:38:17;102687.09;;;8.10;100.00
40073;BME280;25774;52.256;9.356;2023-02-13T02:40:56;102663.53;;;7.95;100.00
40073;BME280;25774;52.256;9.356;2023-02-13T02:43:50;102653.13;;;7.78;100.00
40073;BME280;25774;52.256;9.356;2023-02-13T02:46:33;102667.00;;;7.99;100.00
40073;BME280;25774;52.256;9.356;2023-02-13T02:49:07;102660.84;;;8.04;100.00
40073;BME280;25774;52.256;9.356;2023-02-13T02:52:14;102639.19;;;7.68;100.00
40073;BME280;25774;52.256;9.356;2023-02-13T02:54:55;102637.47;;;7.66;100.00
40073;BME280;25774;52.256;9.356;2023-02-13T02:57:35;102644.41;;;7.75;100.00
40073;BME280;25774;52.256;9.356;2023-02-13T03:00:23;102638.19;;;7.86;100.00
40073;BME280;25774;52.256;9.356;2023-02-13T03:03:21;102637.22;;;7.97;100.00
40073;BME280;25774;52.256;9.356;2023-02-13T03:06:26;102631.91;;;8.04;100.00
40073;BME280;25774;52.256;9.356;2023-02-13T03:09:00;102618.75;;;8.04;100.00
40073;BME280;25774;52.256;9.356;2023-02-13T03:11:59;102617.78;;;8.13;100.00
40073;BME280;25774;52.256;9.356;2023-02-13T03:14:43;102605.50;;;8.13;100.00
40073;BME280;25774;52.256;9.356;2023-02-13T03:17:14;102602.09;;;8.01;100.00
40073;BME280;25774;52.256;9.356;2023-02-13T03:23:24;102602.16;;;7.98;100.00
40073;BME280;25774;52.256;9.356;2023-02-13T03:26:17;102602.09;;;8.04;100.00
40073;BME280;25774;52.256;9.356;2023-02-13T03:29:05;102606.59;;;7.88;100.00
40073;BME280;25774;52.256;9.356;2023-02-13T03:32:08;102609.28;;;7.85;100.00
40073;BME280;25774;52.256;9.356;2023-02-13T03:34:38;102611.06;;;7.83;100.00
40073;BME280;25774;52.256;9.356;2023-02-13T03:37:34;102613.66;;;7.84;100.00
40073;BME280;25774;52.256;9.356;2023-02-13T03:40:36;102601.56;;;7.62;100.00
40073;BME280;25774;52.256;9.356;2023-02-13T03:43:13;102622.34;;;7.91;100.00
40073;BME280;25774;52.256;9.356;2023-02-13T03:45:43;102627.47;;;8.08;100.00
40073;BME280;25774;52.256;9.356;2023-02-13T03:48:35;102614.53;;;7.86;100.00
40073;BME280;25774;52.256;9.356;2023-02-13T03:51:31;102616.94;;;8.11;100.00
40073;BME280;25774;52.256;9.356;2023-02-13T03:54:01;102604.00;;;7.86;100.00
40073;BME280;25774;52.256;9.356;2023-02-13T03:56:29;102607.53;;;7.85;100.00
40073;BME280;25774;52.256;9.356;2023-02-13T03:59:23;102606.09;;;7.43;100.00
40073;BME280;25774;52.256;9.356;2023-02-13T04:02:02;102611.97;;;7.79;100.00
40073;BME280;25774;52.256;9.356;2023-02-13T04:07:04;102614.38;;;8.03;100.00
40073;BME280;25774;52.256;9.356;2023-02-13T04:09:32;102598.13;;;7.55;100.00
40073;BME280;25774;52.256;9.356;2023-02-13T04:12:15;102612.88;;;7.72;100.00
40073;BME280;25774;52.256;9.356;2023-02-13T04:14:57;102626.81;;;7.86;100.00
40073;BME280;25774;52.256;9.356;2023-02-13T04:20:21;102604.97;;;7.76;100.00
40073;BME280;25774;52.256;9.356;2023-02-13T04:22:47;102609.25;;;7.86;100.00
40073;BME280;25774;52.256;9.356;2023-02-13T04:25:14;102609.19;;;7.96;100.00
40073;BME280;25774;52.256;9.356;2023-02-13T04:27:40;102615.38;;;7.91;100.00
40073;BME280;25774;52.256;9.356;2023-02-13T04:30:05;102607.59;;;7.76;100.00
40073;BME280;25774;52.256;9.356;2023-02-13T04:32:31;102603.31;;;7.61;100.00
40073;BME280;25774;52.256;9.356;2023-02-13T04:34:56;102600.72;;;7.63;100.00
40073;BME280;25774;52.256;9.356;2023-02-13T04:37:22;102597.28;;;7.49;100.00
40073;BME280;25774;52.256;9.356;2023-02-13T04:39:47;102599.91;;;7.53;100.00
40073;BME280;25774;52.256;9.356;2023-02-13T04:42:12;102603.31;;;7.64;100.00
40073;BME280;25774;52.256;9.356;2023-02-13T04:44:38;102603.19;;;7.78;100.00
40073;BME280;25774;52.256;9.356;2023-02-13T04:47:03;102593.66;;;7.65;100.00
40073;BME280;25774;52.256;9.356;2023-02-13T04:49:28;102584.06;;;7.59;100.00
40073;BME280;25774;52.256;9.356;2023-02-13T04:51:54;102571.94;;;7.43;100.00
40073;BME280;25774;52.256;9.356;2023-02-13T04:54:19;102588.53;;;7.48;100.00
40073;BME280;25774;52.256;9.356;2023-02-13T04:56:45;102589.44;;;7.45;100.00
40073;BME280;25774;52.256;9.356;2023-02-13T04:59:10;102592.13;;;7.36;100.00
40073;BME280;25774;52.256;9.356;2023-02-13T05:01:35;102584.31;;;7.29;100.00
40073;BME280;25774;52.256;9.356;2023-02-13T05:04:01;102579.94;;;7.31;100.00
40073;BME280;25774;52.256;9.356;2023-02-13T05:06:26;102586.84;;;7.44;100.00
40073;BME280;25774;52.256;9.356;2023-02-13T05:08:52;102598.19;;;7.46;100.00
40073;BME280;25774;52.256;9.356;2023-02-13T05:11:17;102590.44;;;7.26;100.00
40073;BME280;25774;52.256;9.356;2023-02-13T05:13:42;102596.50;;;7.40;100.00
40073;BME280;25774;52.256;9.356;2023-02-13T05:16:08;102595.56;;;7.46;100.00
40073;BME280;25774;52.256;9.356;2023-02-13T05:18:33;102598.22;;;7.41;100.00
40073;BME280;25774;52.256;9.356;2023-02-13T05:20:59;102599.09;;;7.42;100.00
40073;BME280;25774;52.256;9.356;2023-02-13T05:23:43;102606.91;;;7.51;100.00
40073;BME280;25774;52.256;9.356;2023-02-13T05:26:09;102607.03;;;7.37;100.00
40073;BME280;25774;52.256;9.356;2023-02-13T05:28:35;102613.94;;;7.49;100.00
40073;BME280;25774;52.256;9.356;2023-02-13T05:31:19;102613.91;;;7.52;100.00
40073;BME280;25774;52.256;9.356;2023-02-13T05:33:44;102612.16;;;7.50;100.00
40073;BME280;25774;52.256;9.356;2023-02-13T05:36:11;102608.72;;;7.40;100.00
40073;BME280;25774;52.256;9.356;2023-02-13T05:38:36;102614.91;;;7.37;100.00
40073;BME280;25774;52.256;9.356;2023-02-13T05:41:02;102620.19;;;7.34;100.00
40073;BME280;25774;52.256;9.356;2023-02-13T05:43:28;102620.09;;;7.42;100.00
40073;BME280;25774;52.256;9.356;2023-02-13T05:46:02;102612.31;;;7.27;100.00
40073;BME280;25774;52.256;9.356;2023-02-13T05:48:27;102626.31;;;7.30;100.00
40073;BME280;25774;52.256;9.356;2023-02-13T05:50:53;102624.50;;;7.38;100.00
40073;BME280;25774;52.256;9.356;2023-02-13T05:53:18;102632.38;;;7.40;100.00
40073;BME280;25774;52.256;9.356;2023-02-13T05:55:44;102631.50;;;7.42;100.00
40073;BME280;25774;52.256;9.356;2023-02-13T05:58:10;102632.41;;;7.35;100.00
40073;BME280;25774;52.256;9.356;2023-02-13T06:00:38;102636.81;;;7.35;100.00
40073;BME280;25774;52.256;9.356;2023-02-13T06:03:03;102651.69;;;7.34;100.00
40073;BME280;25774;52.256;9.356;2023-02-13T06:05:29;102653.34;;;7.51;100.00
40073;BME280;25774;52.256;9.356;2023-02-13T06:07:54;102665.47;;;7.65;100.00
40073;BME280;25774;52.256;9.356;2023-02-13T06:10:20;102648.94;;;7.54;100.00
40073;BME280;25774;52.256;9.356;2023-02-13T06:12:45;102643.72;;;7.48;100.00
40073;BME280;25774;52.256;9.356;2023-02-13T06:15:10;102646.31;;;7.50;100.00
40073;BME280;25774;52.256;9.356;2023-02-13T06:17:36;102651.66;;;7.40;100.00
40073;BME280;25774;52.256;9.356;2023-02-13T06:20:02;102653.34;;;7.51;100.00
40073;BME280;25774;52.256;9.356;2023-02-13T06:22:27;102663.84;;;7.51;100.00
40073;BME280;25774;52.256;9.356;2023-02-13T06:24:53;102656.78;;;7.57;100.00
40073;BME280;25774;52.256;9.356;2023-02-13T06:27:40;102662.00;;;7.65;100.00
40073;BME280;25774;52.256;9.356;2023-02-13T06:30:06;102661.09;;;7.67;100.00
40073;BME280;25774;52.256;9.356;2023-02-13T06:32:32;102658.34;;;7.84;100.00
40073;BME280;25774;52.256;9.356;2023-02-13T06:34:57;102646.22;;;7.66;100.00
40073;BME280;25774;52.256;9.356;2023-02-13T06:37:23;102642.06;;;7.30;100.00
40073;BME280;25774;52.256;9.356;2023-02-13T06:39:48;102647.31;;;7.32;100.00
40073;BME280;25774;52.256;9.356;2023-02-13T06:42:14;102654.34;;;7.23;100.00
40073;BME280;25774;52.256;9.356;2023-02-13T06:44:39;102664.88;;;7.23;100.00
40073;BME280;25774;52.256;9.356;2023-02-13T06:47:05;102672.69;;;7.37;100.00
40073;BME280;25774;52.256;9.356;2023-02-13T06:49:30;102678.75;;;7.49;100.00
40073;BME280;25774;52.256;9.356;2023-02-13T06:51:56;102677.88;;;7.46;100.00
40073;BME280;25774;52.256;9.356;2023-02-13T06:54:21;102678.00;;;7.28;100.00
40073;BME280;25774;52.256;9.356;2023-02-13T06:56:46;102681.41;;;7.39;100.00
40073;BME280;25774;52.256;9.356;2023-02-13T06:59:12;102683.19;;;7.37;100.00
40073;BME280;25774;52.256;9.356;2023-02-13T07:01:37;102685.75;;;7.48;100.00
40073;BME280;25774;52.256;9.356;2023-02-13T07:04:03;102695.34;;;7.57;100.00
40073;BME280;25774;52.256;9.356;2023-02-13T07:06:29;102686.63;;;7.53;100.00
40073;BME280;25774;52.256;9.356;2023-02-13T07:08:54;102700.59;;;7.60;100.00
40073;BME280;25774;52.256;9.356;2023-02-13T07:11:23;102688.44;;;7.40;100.00
40073;BME280;25774;52.256;9.356;2023-02-13T07:13:49;102686.63;;;7.45;100.00
40073;BME280;25774;52.256;9.356;2023-02-13T07:16:15;102686.69;;;7.41;100.00
40073;BME280;25774;52.256;9.356;2023-02-13T07:18:40;102690.16;;;7.44;100.00
40073;BME280;25774;52.256;9.356;2023-02-13T07:21:06;102690.06;;;7.60;100.00
40073;BME280;25774;52.256;9.356;2023-02-13T07:23:32;102685.69;;;7.56;100.00
40073;BME280;25774;52.256;9.356;2023-02-13T07:25:58;102675.25;;;7.46;100.00
40073;BME280;25774;52.256;9.356;2023-02-13T07:28:24;102683.88;;;7.65;100.00
40073;BME280;25774;52.256;9.356;2023-02-13T07:30:49;102674.19;;;7.74;100.00
40073;BME280;25774;52.256;9.356;2023-02-13T07:33:14;102670.88;;;7.50;100.00
40073;BME280;25774;52.256;9.356;2023-02-13T07:35:45;102669.91;;;7.59;100.00
40073;BME280;25774;52.256;9.356;2023-02-13T07:38:11;102671.56;;;7.72;100.00
40073;BME280;25774;52.256;9.356;2023-02-13T07:40:36;102659.41;;;7.56;100.00
40073;BME280;25774;52.256;9.356;2023-02-13T07:43:01;102659.47;;;7.46;100.00
40073;BME280;25774;52.256;9.356;2023-02-13T07:45:27;102665.66;;;7.36;100.00
40073;BME280;25774;52.256;9.356;2023-02-13T07:47:54;102676.16;;;7.42;100.00
40073;BME280;25774;52.256;9.356;2023-02-13T07:50:20;102677.03;;;7.40;100.00
40073;BME280;25774;52.256;9.356;2023-02-13T07:52:56;102687.44;;;7.60;100.00
40073;BME280;25774;52.256;9.356;2023-02-13T07:55:22;102682.22;;;7.54;100.00
40073;BME280;25774;52.256;9.356;2023-02-13T07:57:48;102678.72;;;7.52;100.00
40073;BME280;25774;52.256;9.356;2023-02-13T08:00:14;102680.41;;;7.63;100.00
40073;BME280;25774;52.256;9.356;2023-02-13T08:02:49;102676.09;;;7.52;100.00
40073;BME280;25774;52.256;9.356;2023-02-13T08:05:15;102683.00;;;7.68;100.00
40073;BME280;25774;52.256;9.356;2023-02-13T08:07:40;102685.59;;;7.73;100.00
40073;BME280;25774;52.256;9.356;2023-02-13T08:10:07;102687.31;;;7.75;100.00
40073;BME280;25774;52.256;9.356;2023-02-13T08:12:52;102685.69;;;7.60;100.00
40073;BME280;25774;52.256;9.356;2023-02-13T08:15:18;102680.47;;;7.54;100.00
40073;BME280;25774;52.256;9.356;2023-02-13T08:17:43;102683.91;;;7.64;100.00
40073;BME280;25774;52.256;9.356;2023-02-13T08:20:09;102681.28;;;7.61;100.00
40073;BME280;25774;52.256;9.356;2023-02-13T08:22:35;102686.50;;;7.70;100.00
40073;BME280;25774;52.256;9.356;2023-02-13T08:25:01;102688.06;;;7.96;100.00
40073;BME280;25774;52.256;9.356;2023-02-13T08:27:27;102693.31;;;7.99;100.00
40073;BME280;25774;52.256;9.356;2023-02-13T08:29:57;102677.66;;;7.82;100.00
40073;BME280;25774;52.256;9.356;2023-02-13T08:32:24;102680.13;;;8.00;100.00
40073;BME280;25774;52.256;9.356;2023-02-13T08:34:50;102679.94;;;8.23;100.00
40073;BME280;25774;52.256;9.356;2023-02-13T08:37:16;102680.78;;;8.30;100.00
40073;BME280;25774;52.256;9.356;2023-02-13T08:39:42;102673.09;;;8.01;100.00
40073;BME280;25774;52.256;9.356;2023-02-13T08:42:07;102669.63;;;7.97;100.00
40073;BME280;25774;52.256;9.356;2023-02-13T08:44:33;102666.16;;;7.95;100.00
40073;BME280;25774;52.256;9.356;2023-02-13T08:46:58;102661.81;;;7.89;100.00
40073;BME280;25774;52.256;9.356;2023-02-13T08:49:31;102663.53;;;7.93;100.00
40073;BME280;25774;52.256;9.356;2023-02-13T08:51:56;102671.22;;;8.16;100.00
40073;BME280;25774;52.256;9.356;2023-02-13T08:54:22;102666.66;;;8.35;100.00
40073;BME280;25774;52.256;9.356;2023-02-13T08:56:47;102664.03;;;8.38;100.00
40073;BME280;25774;52.256;9.356;2023-02-13T08:59:13;102665.78;;;8.38;100.00
40073;BME280;25774;52.256;9.356;2023-02-13T09:01:38;102667.31;;;8.60;100.00
40073;BME280;25774;52.256;9.356;2023-02-13T09:04:04;102656.03;;;8.52;100.00
40073;BME280;25774;52.256;9.356;2023-02-13T09:06:29;102659.53;;;8.50;100.00
40073;BME280;25774;52.256;9.356;2023-02-13T09:08:55;102654.38;;;8.39;100.00
40073;BME280;25774;52.256;9.356;2023-02-13T09:11:20;102656.09;;;8.42;100.00
40073;BME280;25774;52.256;9.356;2023-02-13T09:13:48;102656.00;;;8.54;100.00
40073;BME280;25774;52.256;9.356;2023-02-13T09:16:13;102652.47;;;8.56;100.00
40073;BME280;25774;52.256;9.356;2023-02-13T09:18:39;102642.19;;;8.30;100.00
40073;BME280;25774;52.256;9.356;2023-02-13T09:21:06;102644.00;;;8.22;100.00
40073;BME280;25774;52.256;9.356;2023-02-13T09:23:34;102665.44;;;8.72;100.00
40073;BME280;25774;52.256;9.356;2023-02-13T09:26:00;102649.75;;;8.61;100.00
40073;BME280;25774;52.256;9.356;2023-02-13T09:28:26;102654.06;;;8.70;100.00
40073;BME280;25774;52.256;9.356;2023-02-13T09:30:51;102650.47;;;8.78;100.00
40073;BME280;25774;52.256;9.356;2023-02-13T09:33:17;102654.69;;;8.92;100.00
40073;BME280;25774;52.256;9.356;2023-02-13T09:35:42;102649.25;;;9.04;100.00
40073;BME280;25774;52.256;9.356;2023-02-13T09:38:10;102641.41;;;8.99;100.00
40073;BME280;25774;52.256;9.356;2023-02-13T09:40:45;102634.47;;;8.94;100.00
40073;BME280;25774;52.256;9.356;2023-02-13T09:43:34;102644.75;;;9.12;100.00
40073;BME280;25774;52.256;9.356;2023-02-13T09:46:18;102645.50;;;9.23;100.00
40073;BME280;25774;52.256;9.356;2023-02-13T09:48:48;102634.88;;;9.28;100.00
40073;BME280;25774;52.256;9.356;2023-02-13T09:51:18;102630.63;;;9.18;100.00
40073;BME280;25774;52.256;9.356;2023-02-13T09:53:52;102635.13;;;9.11;100.00
40073;BME280;25774;52.256;9.356;2023-02-13T09:59:02;102629.72;;;9.19;100.00
40073;BME280;25774;52.256;9.356;2023-02-13T10:01:36;102649.78;;;9.30;100.00
40073;BME280;25774;52.256;9.356;2023-02-13T10:04:34;102642.78;;;9.28;100.00
40073;BME280;25774;52.256;9.356;2023-02-13T10:07:16;102644.47;;;9.34;100.00
40073;BME280;25774;52.256;9.356;2023-02-13T10:12:52;102619.75;;;8.76;100.00
40073;BME280;25774;52.256;9.356;2023-02-13T10:15:47;102631.88;;;8.89;100.00
40073;BME280;25774;52.256;9.356;2023-02-13T10:18:18;102624.88;;;8.88;100.00
40073;BME280;25774;52.256;9.356;2023-02-13T10:20:51;102646.44;;;9.19;100.00
40073;BME280;25774;52.256;9.356;2023-02-13T10:23:25;102630.72;;;9.13;100.00
40073;BME280;25774;52.256;9.356;2023-02-13T10:25:56;102644.47;;;9.34;100.00
40073;BME280;25774;52.256;9.356;2023-02-13T10:28:32;102639.97;;;9.40;100.00
40073;BME280;25774;52.256;9.356;2023-02-13T10:31:06;102632.84;;;9.47;100.00
40073;BME280;25774;52.256;9.356;2023-02-13T10:33:45;102622.94;;;9.64;100.00
40073;BME280;25774;52.256;9.356;2023-02-13T10:36:17;102615.44;;;9.37;100.00
40073;BME280;25774;52.256;9.356;2023-02-13T10:39:26;102615.13;;;9.57;100.00
40073;BME280;25774;52.256;9.356;2023-02-13T10:41:52;102620.09;;;9.75;100.00
40073;BME280;25774;52.256;9.356;2023-02-13T10:49:58;102570.25;;;9.02;100.00
40073;BME280;25774;52.256;9.356;2023-02-13T10:52:37;102587.94;;;9.53;100.00
40073;BME280;25774;52.256;9.356;2023-02-13T10:58:25;102563.59;;;9.39;100.00
40073;BME280;25774;52.256;9.356;2023-02-13T11:01:21;102569.00;;;9.28;100.00
40073;BME280;25774;52.256;9.356;2023-02-13T11:04:06;102575.91;;;9.37;100.00
40073;BME280;25774;52.256;9.356;2023-02-13T11:06:35;102584.91;;;9.22;100.00
40073;BME280;25774;52.256;9.356;2023-02-13T11:09:04;102593.31;;;9.47;100.00
40073;BME280;25774;52.256;9.356;2023-02-13T11:11:37;102580.19;;;9.44;100.00
40073;BME280;25774;52.256;9.356;2023-02-13T11:16:58;102592.91;;;9.71;100.00
40073;BME280;25774;52.256;9.356;2023-02-13T11:19:25;102569.69;;;9.41;100.00
40073;BME280;25774;52.256;9.356;2023-02-13T11:21:56;102568.16;;;9.26;100.00
40073;BME280;25774;52.256;9.356;2023-02-13T11:24:25;102574.75;;;9.53;100.00
40073;BME280;25774;52.256;9.356;2023-02-13T11:27:11;102582.66;;;9.53;100.00
40073;BME280;25774;52.256;9.356;2023-02-13T11:29:59;102581.63;;;9.63;100.00
40073;BME280;25774;52.256;9.356;2023-02-13T11:32:28;102561.00;;;9.36;100.00
40073;BME280;25774;52.256;9.356;2023-02-13T11:34:55;102583.91;;;9.85;100.00
40073;BME280;25774;52.256;9.356;2023-02-13T11:37:23;102563.06;;;9.71;100.00
40073;BME280;25774;52.256;9.356;2023-02-13T11:39:52;102560.31;;;9.77;100.00
40073;BME280;25774;52.256;9.356;2023-02-13T11:45:22;102546.06;;;9.87;100.00
40073;BME280;25774;52.256;9.356;2023-02-13T11:47:45;102556.94;;;10.18;100.00
40073;BME280;25774;52.256;9.356;2023-02-13T11:50:28;102521.03;;;9.60;100.00
40073;BME280;25774;52.256;9.356;2023-02-13T11:52:57;102545.69;;;10.09;100.00
40073;BME280;25774;52.256;9.356;2023-02-13T11:55:30;102549.94;;;10.14;100.00
40073;BME280;25774;52.256;9.356;2023-02-13T11:58:03;102513.03;;;9.66;100.00
40073;BME280;25774;52.256;9.356;2023-02-13T12:00:35;102517.91;;;9.88;100.00
40073;BME280;25774;52.256;9.356;2023-02-13T12:06:01;102520.50;;;9.91;100.00
40073;BME280;25774;52.256;9.356;2023-02-13T12:08:28;102520.22;;;10.06;100.00
40073;BME280;25774;52.256;9.356;2023-02-13T12:10:56;102520.69;;;10.28;100.00
40073;BME280;25774;52.256;9.356;2023-02-13T12:13:30;102509.56;;;10.11;100.00
40073;BME280;25774;52.256;9.356;2023-02-13T12:16:03;102497.56;;;9.96;100.00
40073;BME280;25774;52.256;9.356;2023-02-13T12:18:39;102497.41;;;10.04;100.00
40073;BME280;25774;52.256;9.356;2023-02-13T12:21:59;102503.53;;;10.04;100.00
40073;BME280;25774;52.256;9.356;2023-02-13T12:27:13;102487.88;;;9.95;100.00
40073;BME280;25774;52.256;9.356;2023-02-13T12:32:39;102510.59;;;10.04;100.00
40073;BME280;25774;52.256;9.356;2023-02-13T12:52:06;102469.31;;;10.01;100.00
40073;BME280;25774;52.256;9.356;2023-02-13T13:05:37;102486.22;;;10.37;100.00
40073;BME280;25774;52.256;9.356;2023-02-13T13:08:31;102473.84;;;10.78;100.00
40073;BME280;25774;52.256;9.356;2023-02-13T13:14:11;102448.34;;;11.14;100.00
40073;BME280;25774;52.256;9.356;2023-02-13T13:17:01;102425.06;;;10.94;100.00
40073;BME280;25774;52.256;9.356;2023-02-13T13:22:38;102454.28;;;11.23;100.00
40073;BME280;25774;52.256;9.356;2023-02-13T13:27:43;102398.72;;;10.91;100.00
40073;BME280;25774;52.256;9.356;2023-02-13T13:30:18;102388.59;;;10.73;100.00
40073;BME280;25774;52.256;9.356;2023-02-13T13:32:47;102402.16;;;10.93;100.00
40073;BME280;25774;52.256;9.356;2023-02-13T13:35:18;102393.16;;;11.02;100.00
40073;BME280;25774;52.256;9.356;2023-02-13T13:37:57;102379.59;;;10.44;100.00
40073;BME280;25774;52.256;9.356;2023-02-13T13:40:44;102392.28;;;10.27;100.00
40073;BME280;25774;52.256;9.356;2023-02-13T13:43:28;102409.41;;;10.48;100.00
40073;BME280;25774;52.256;9.356;2023-02-13T13:46:13;102403.72;;;10.28;100.00
40073;BME280;25774;52.256;9.356;2023-02-13T13:51:35;102390.53;;;10.26;100.00
40073;BME280;25774;52.256;9.356;2023-02-13T13:59:18;102389.84;;;9.73;100.00
40073;BME280;25774;52.256;9.356;2023-02-13T14:01:44;102403.72;;;9.83;100.00
40073;BME280;25774;52.256;9.356;2023-02-13T14:09:42;102388.69;;;9.88;100.00
40073;BME280;25774;52.256;9.356;2023-02-13T14:14:52;102386.13;;;9.40;100.00
40073;BME280;25774;52.256;9.356;2023-02-13T14:20:37;102393.53;;;9.66;100.00
40073;BME280;25774;52.256;9.356;2023-02-13T14:23:34;102380.88;;;9.38;100.00
40073;BME280;25774;52.256;9.356;2023-02-13T14:31:30;102381.28;;;9.17;100.00
40073;BME280;25774;52.256;9.356;2023-02-13T14:34:06;102393.53;;;9.19;100.00
40073;BME280;25774;52.256;9.356;2023-02-13T14:36:34;102390.78;;;9.25;100.00
40073;BME280;25774;52.256;9.356;2023-02-13T14:39:04;102396.59;;;9.43;100.00
40073;BME280;25774;52.256;9.356;2023-02-13T14:49:44;102380.63;;;9.04;100.00
40073;BME280;25774;52.256;9.356;2023-02-13T14:52:17;102393.97;;;8.92;100.00
40073;BME280;25774;52.256;9.356;2023-02-13T14:54:48;102396.81;;;8.81;100.00
40073;BME280;25774;52.256;9.356;2023-02-13T14:57:17;102409.66;;;8.99;100.00
40073;BME280;25774;52.256;9.356;2023-02-13T14:59:48;102415.72;;;9.04;100.00
40073;BME280;25774;52.256;9.356;2023-02-13T15:02:20;102414.66;;;9.15;100.00
40073;BME280;25774;52.256;9.356;2023-02-13T15:04:55;102406.00;;;9.10;100.00
40073;BME280;25774;52.256;9.356;2023-02-13T15:07:27;102396.63;;;8.92;100.00
40073;BME280;25774;52.256;9.356;2023-02-13T15:10:01;102396.81;;;8.79;100.00
40073;BME280;25774;52.256;9.356;2023-02-13T15:12:34;102395.38;;;8.60;100.00
40073;BME280;25774;52.256;9.356;2023-02-13T15:15:01;102411.97;;;8.64;100.00